Time;durP1;ratioP1;P1;durP2;ratioP2;P2;SDS_P1;SDS_P2;PMS_P1;PMS_P2;Temp;Humidity;BMP_temperature;BMP_pressure;BME280_temperature;BME280_humidity;BME280_pressure;Samples;Min_cycle;Max_cycle;Signal;HPM_P1;HPM_P2
2023/07/18 00:01:48;;;;;;;2.90;1.40;;;;;;;16.55;82.76;102112.72;5079029;28;20483;-85
2023/07/18 00:04:13;;;;;;;3.63;1.70;;;;;;;16.55;82.88;102106.59;5066989;28;20339;-85
2023/07/18 00:06:41;;;;;;;2.67;1.60;;;;;;;16.56;82.71;102101.25;5094870;28;20039;-85
2023/07/18 00:09:07;;;;;;;3.13;1.13;;;;;;;16.57;82.57;102100.31;5081203;28;20054;-85
2023/07/18 00:11:32;;;;;;;2.75;1.30;;;;;;;16.55;82.58;102098.66;5059990;28;20391;-85
2023/07/18 00:13:58;;;;;;;2.28;0.90;;;;;;;16.55;82.63;102110.09;5078531;28;20036;-85
2023/07/18 00:16:24;;;;;;;6.18;1.30;;;;;;;16.56;82.50;102097.75;5089040;28;20052;-85
2023/07/18 00:18:50;;;;;;;5.97;1.33;;;;;;;16.56;82.67;102103.03;5060578;28;20428;-85
2023/07/18 00:21:16;;;;;;;2.35;1.42;;;;;;;16.55;82.61;102101.31;5078417;28;20037;-85
2023/07/18 00:23:41;;;;;;;3.28;1.23;;;;;;;16.53;82.57;102104.00;5078149;28;20043;-84
2023/07/18 00:26:08;;;;;;;2.85;1.08;;;;;;;16.53;82.64;102105.81;5060187;28;20032;-85
2023/07/18 00:28:34;;;;;;;3.63;1.30;;;;;;;16.52;82.56;102110.25;5059623;28;20047;-85
2023/07/18 00:30:59;;;;;;;5.85;1.00;;;;;;;16.50;82.58;102098.88;5078187;28;20047;-85
2023/07/18 00:33:25;;;;;;;2.90;1.40;;;;;;;16.50;82.49;102098.88;5077115;28;20035;-85
2023/07/18 00:35:51;;;;;;;2.72;1.23;;;;;;;16.50;82.67;102093.59;5079258;28;20043;-85
2023/07/18 00:38:16;;;;;;;2.78;1.52;;;;;;;16.50;82.52;102104.19;5064694;28;20236;-84
2023/07/18 00:40:41;;;;;;;4.03;1.23;;;;;;;16.49;82.65;102100.66;5077974;28;20347;-84
2023/07/18 00:43:14;;;;;;;2.58;1.15;;;;;;;16.49;82.50;102098.00;5059962;28;20024;-85
2023/07/18 00:45:43;;;;;;;3.72;1.42;;;;;;;16.47;82.60;102104.31;5077197;28;20040;-85
2023/07/18 00:48:10;;;;;;;2.25;1.00;;;;;;;16.47;82.70;102101.66;5077648;28;20027;-84
2023/07/18 00:50:37;;;;;;;1.70;1.00;;;;;;;16.47;82.56;102107.81;5090788;28;20091;-84
2023/07/18 00:53:03;;;;;;;2.83;1.27;;;;;;;16.46;82.60;102116.69;5093916;28;20340;-85
2023/07/18 00:55:29;;;;;;;1.73;0.85;;;;;;;16.43;82.72;102105.38;5059508;28;20078;-85
2023/07/18 00:57:55;;;;;;;4.80;1.10;;;;;;;16.41;82.75;102107.22;5059310;28;20033;-85
2023/07/18 01:00:22;;;;;;;3.15;1.10;;;;;;;16.38;82.93;102102.09;5074834;28;20401;-85
2023/07/18 01:05:23;;;;;;;2.00;1.00;;;;;;;16.34;83.14;102105.81;5103730;22;20053;-84
2023/07/18 01:07:48;;;;;;;1.88;1.00;;;;;;;16.34;83.17;102098.72;5040582;28;20426;-84
2023/07/18 01:10:13;;;;;;;4.47;1.20;;;;;;;16.34;83.25;102097.88;5066530;28;20040;-84
2023/07/18 01:12:39;;;;;;;4.95;1.20;;;;;;;16.32;82.90;102087.34;5056984;28;20092;-84
2023/07/18 01:15:05;;;;;;;5.28;1.23;;;;;;;16.28;83.11;102091.03;5039686;28;20033;-84
2023/07/18 01:17:31;;;;;;;3.17;1.05;;;;;;;16.25;83.26;102088.56;5039084;28;20247;-84
2023/07/18 01:19:57;;;;;;;4.32;1.00;;;;;;;16.20;83.18;102083.47;5065880;28;20063;-84
2023/07/18 01:22:23;;;;;;;1.77;0.93;;;;;;;16.17;83.16;102088.03;5056991;28;20029;-84
2023/07/18 01:24:48;;;;;;;2.70;0.88;;;;;;;16.16;83.07;102087.19;5046857;28;20054;-84
2023/07/18 01:27:14;;;;;;;2.80;0.98;;;;;;;16.13;83.66;102087.31;5058954;28;20028;-84
2023/07/18 01:29:39;;;;;;;3.47;1.27;;;;;;;16.10;83.63;102084.81;5053938;28;20128;-84
2023/07/18 01:32:05;;;;;;;4.72;1.40;;;;;;;16.05;83.61;102078.88;5057113;28;20037;-84
2023/07/18 01:34:31;;;;;;;2.05;1.02;;;;;;;16.03;83.68;102083.38;5063486;28;20037;-84
2023/07/18 01:36:57;;;;;;;1.95;1.20;;;;;;;16.00;83.61;102089.63;5056545;28;20044;-84
2023/07/18 01:39:22;;;;;;;2.88;1.10;;;;;;;15.98;83.66;102072.13;5065669;28;20032;-84
2023/07/18 01:41:49;;;;;;;3.70;1.15;;;;;;;15.92;83.73;102063.56;5056311;28;20235;-84
2023/07/18 01:44:14;;;;;;;1.65;1.05;;;;;;;15.89;83.83;102065.47;5038920;28;20116;-84
2023/07/18 01:46:40;;;;;;;3.45;1.40;;;;;;;15.84;83.93;102063.00;5076136;28;20111;-84
2023/07/18 01:49:05;;;;;;;3.35;1.52;;;;;;;15.82;84.17;102064.00;5076368;28;20149;-84
2023/07/18 01:51:31;;;;;;;2.17;1.27;;;;;;;15.78;84.36;102063.28;5063844;28;20047;-84
2023/07/18 01:53:56;;;;;;;3.80;1.30;;;;;;;15.72;84.67;102060.88;5074776;28;20399;-84
2023/07/18 01:56:22;;;;;;;3.72;1.25;;;;;;;15.70;84.63;102073.31;5040878;28;20029;-84
2023/07/18 01:58:47;;;;;;;2.17;1.30;;;;;;;15.66;85.16;102066.41;5059031;28;20031;-84
2023/07/18 02:01:13;;;;;;;2.53;1.17;;;;;;;15.63;85.25;102062.13;5066833;28;20354;-84
2023/07/18 02:03:38;;;;;;;1.23;0.95;;;;;;;15.63;85.34;102067.41;5056981;28;20048;-84
2023/07/18 02:06:04;;;;;;;2.25;1.10;;;;;;;15.60;85.25;102062.25;5054399;28;20033;-84
2023/07/18 02:08:29;;;;;;;4.20;1.33;;;;;;;15.59;85.29;102057.91;5055643;28;20044;-84
2023/07/18 02:10:55;;;;;;;3.67;1.42;;;;;;;15.59;85.36;102060.56;5063194;28;20092;-84
2023/07/18 02:13:21;;;;;;;2.15;1.02;;;;;;;15.59;85.57;102063.19;5037624;28;20033;-84
2023/07/18 02:15:46;;;;;;;4.90;1.30;;;;;;;15.58;85.27;102052.69;5049251;28;20331;-84
2023/07/18 02:18:12;;;;;;;3.67;1.60;;;;;;;15.57;85.65;102057.09;5076022;28;20040;-84
2023/07/18 02:20:37;;;;;;;2.55;1.33;;;;;;;15.59;85.61;102057.03;5053073;28;20050;-84
2023/07/18 02:23:02;;;;;;;4.10;1.10;;;;;;;15.58;85.63;102042.97;5056483;28;20037;-84
2023/07/18 02:25:28;;;;;;;2.58;1.35;;;;;;;15.55;85.37;102043.09;5063564;28;20040;-84
2023/07/18 02:27:53;;;;;;;1.50;1.10;;;;;;;15.56;85.43;102047.47;5076306;28;20099;-84
2023/07/18 02:30:19;;;;;;;2.45;0.93;;;;;;;15.58;85.30;102047.41;5068025;28;20043;-84
2023/07/18 02:32:44;;;;;;;5.65;1.35;;;;;;;15.57;85.34;102045.69;5075335;28;20056;-84
2023/07/18 02:35:11;;;;;;;4.55;1.08;;;;;;;15.55;85.29;102051.03;5060670;28;20101;-84
2023/07/18 02:37:37;;;;;;;4.50;1.30;;;;;;;15.52;85.30;102048.53;5055180;28;20563;-84
2023/07/18 02:40:09;;;;;;;3.70;1.25;;;;;;;15.50;85.28;102053.88;5062366;28;20033;-84
2023/07/18 02:42:36;;;;;;;4.40;1.27;;;;;;;15.49;85.41;102053.94;5055452;28;20040;-84
2023/07/18 02:45:01;;;;;;;2.97;1.17;;;;;;;15.47;85.83;102053.16;5060511;28;20056;-84
2023/07/18 02:47:27;;;;;;;3.58;1.52;;;;;;;15.46;85.63;102057.56;5054923;28;20047;-84
2023/07/18 02:49:52;;;;;;;2.05;1.23;;;;;;;15.44;85.61;102048.84;5058670;28;20040;-84
2023/07/18 02:52:17;;;;;;;2.42;1.65;;;;;;;15.44;85.65;102050.63;5056727;28;20235;-84
2023/07/18 02:54:43;;;;;;;4.68;1.88;;;;;;;15.43;85.85;102055.06;5056556;28;20032;-84
2023/07/18 02:57:08;;;;;;;1.65;1.27;;;;;;;15.44;85.66;102055.91;5053721;28;20033;-84
2023/07/18 02:59:34;;;;;;;2.95;1.40;;;;;;;15.41;85.97;102056.91;5054565;28;20039;-84
2023/07/18 03:01:59;;;;;;;4.20;1.63;;;;;;;15.41;85.94;102051.63;5074062;28;20267;-84
2023/07/18 03:04:28;;;;;;;2.75;1.67;;;;;;;15.41;85.99;102053.38;5058586;28;20036;-84
2023/07/18 03:06:53;;;;;;;;;;;;;;;15.39;85.90;102045.56;5057751;28;20350;-84
2023/07/18 03:09:21;;;;;;;4.93;1.52;;;;;;;15.39;86.04;102055.22;5060294;28;19973;-84
2023/07/18 03:11:47;;;;;;;1.77;1.38;;;;;;;15.38;85.86;102048.25;5058329;28;20043;-84
2023/07/18 03:14:14;;;;;;;2.95;1.60;;;;;;;15.37;85.79;102052.66;5053122;28;20044;-84
2023/07/18 03:16:40;;;;;;;1.70;1.60;;;;;;;15.37;85.99;102050.00;5056615;28;20163;-84
2023/07/18 03:19:07;;;;;;;3.60;1.50;;;;;;;15.34;86.03;102047.53;5055120;28;20040;-84
2023/07/18 03:21:32;;;;;;;2.03;1.42;;;;;;;15.34;86.04;102050.16;5067442;28;20380;-84
2023/07/18 03:23:58;;;;;;;5.68;1.85;;;;;;;15.34;85.66;102044.88;5074886;28;20028;-84
2023/07/18 03:26:23;;;;;;;3.92;1.63;;;;;;;15.35;85.64;102046.59;5056961;28;20045;-84
2023/07/18 03:28:48;;;;;;;6.03;1.92;;;;;;;15.32;85.85;102042.31;5053392;28;20032;-84
2023/07/18 03:31:14;;;;;;;1.52;1.42;;;;;;;15.31;85.85;102040.56;5064139;28;20286;-84
2023/07/18 03:33:40;;;;;;;6.05;1.88;;;;;;;15.32;85.84;102044.09;5058023;28;20036;-84
2023/07/18 03:36:06;;;;;;;5.78;1.55;;;;;;;15.29;85.73;102042.41;5065063;28;20103;-84
2023/07/18 03:38:31;;;;;;;2.85;1.70;;;;;;;15.28;85.75;102056.56;5068181;28;20036;-84
2023/07/18 03:40:57;;;;;;;2.47;1.58;;;;;;;15.27;85.98;102043.41;5073019;28;20107;-84
2023/07/18 03:43:23;;;;;;;5.35;1.80;;;;;;;15.25;85.88;102045.25;5072886;28;20024;-84
2023/07/18 03:45:49;;;;;;;3.67;1.50;;;;;;;15.24;86.04;102049.66;5067204;28;20036;-84
2023/07/18 03:48:14;;;;;;;2.80;1.63;;;;;;;15.23;85.79;102050.59;5054308;28;20374;-83
2023/07/18 03:50:39;;;;;;;6.07;2.00;;;;;;;15.23;86.18;102047.13;5057505;28;20032;-83
2023/07/18 03:53:05;;;;;;;4.55;1.75;;;;;;;15.22;86.09;102051.50;5073395;28;20249;-84
2023/07/18 03:55:31;;;;;;;4.88;1.75;;;;;;;15.23;86.05;102047.97;5068736;28;20191;-84
2023/07/18 03:57:56;;;;;;;5.57;1.98;;;;;;;15.22;85.88;102051.50;5054822;28;20040;-84
2023/07/18 04:00:22;;;;;;;6.15;1.98;;;;;;;15.22;86.05;102048.88;5054204;28;20036;-84
2023/07/18 04:02:48;;;;;;;2.95;1.88;;;;;;;15.21;86.21;102055.09;5053016;28;20470;-84
2023/07/18 04:05:15;;;;;;;2.85;2.10;;;;;;;15.19;86.27;102051.66;5068267;28;20413;-83
2023/07/18 04:07:41;;;;;;;3.25;1.80;;;;;;;15.21;86.09;102055.09;5053915;28;20036;-84
2023/07/18 04:10:07;;;;;;;2.20;1.48;;;;;;;15.21;86.14;102043.66;5064798;28;20028;-84
2023/07/18 04:12:33;;;;;;;3.58;1.52;;;;;;;15.20;86.33;102042.81;5072833;28;20052;-84
2023/07/18 04:14:58;;;;;;;5.32;2.35;;;;;;;15.20;86.34;102049.88;5074386;28;20040;-83
2023/07/18 04:17:24;;;;;;;6.05;2.25;;;;;;;15.18;86.39;102046.44;5055891;28;20046;-84
2023/07/18 04:19:52;;;;;;;5.28;2.40;;;;;;;15.18;86.60;102046.44;5036020;28;20103;-84
2023/07/18 04:22:17;;;;;;;4.30;2.10;;;;;;;15.18;86.60;102046.44;5054967;28;20126;-83
2023/07/18 04:24:43;;;;;;;8.10;2.60;;;;;;;15.17;86.80;102037.63;5036466;28;20033;-83
2023/07/18 04:27:08;;;;;;;4.60;2.30;;;;;;;15.19;86.63;102040.22;5055034;28;20078;-83
2023/07/18 04:29:34;;;;;;;5.40;2.28;;;;;;;15.18;86.98;102030.59;5059295;28;20230;-83
2023/07/18 04:31:59;;;;;;;6.07;2.25;;;;;;;15.17;86.89;102027.09;5047981;28;20437;-83
2023/07/18 04:34:24;;;;;;;5.68;2.50;;;;;;;15.18;86.97;102031.44;5047573;28;20032;-83
2023/07/18 04:36:50;;;;;;;7.10;2.53;;;;;;;15.19;87.32;102033.19;5047267;28;20028;-83
2023/07/18 04:39:15;;;;;;;7.82;3.03;;;;;;;15.20;87.03;102031.41;5072481;28;20038;-83
2023/07/18 04:41:40;;;;;;;6.78;2.35;;;;;;;15.20;87.35;102029.59;5066680;28;20035;-83
2023/07/18 04:44:06;;;;;;;5.80;2.30;;;;;;;15.21;87.48;102035.72;5072505;28;20036;-83
2023/07/18 04:46:32;;;;;;;6.45;2.83;;;;;;;15.22;87.33;102027.75;5071751;28;20391;-83
2023/07/18 04:48:58;;;;;;;4.38;2.10;;;;;;;15.21;87.88;102027.81;5039471;28;20036;-84
2023/07/18 04:51:24;;;;;;;5.00;2.35;;;;;;;15.21;87.71;102020.78;5062121;28;20096;-84
2023/07/18 04:53:50;;;;;;;5.07;2.40;;;;;;;15.23;87.77;102020.72;5057162;28;20040;-84
2023/07/18 04:56:15;;;;;;;6.40;2.42;;;;;;;15.24;87.79;102020.63;5044026;28;20051;-84
2023/07/18 04:58:40;;;;;;;4.95;2.42;;;;;;;15.25;88.01;102016.25;5056850;28;20396;-84
2023/07/18 05:01:06;;;;;;;5.95;2.50;;;;;;;15.27;88.27;102020.50;5045981;28;20227;-83
2023/07/18 05:03:32;;;;;;;5.15;2.30;;;;;;;15.28;88.30;102016.97;5057161;28;20036;-83
2023/07/18 05:05:57;;;;;;;9.82;3.33;;;;;;;15.31;88.04;102015.97;5073623;28;20401;-84
2023/07/18 05:08:22;;;;;;;5.95;2.33;;;;;;;15.32;88.47;102009.78;5073829;28;20086;-84
2023/07/18 05:10:49;;;;;;;6.57;2.85;;;;;;;15.34;88.77;102006.13;5070626;28;20122;-83
2023/07/18 05:13:14;;;;;;;9.20;3.17;;;;;;;15.35;88.80;102005.22;5065874;28;20040;-83
2023/07/18 05:15:44;;;;;;;7.93;2.65;;;;;;;15.36;88.60;102003.44;5068898;28;20036;-83
2023/07/18 05:18:09;;;;;;;5.68;2.33;;;;;;;15.38;88.86;102006.88;5047560;28;20039;-83
2023/07/18 05:20:35;;;;;;;3.95;2.25;;;;;;;15.39;88.92;102007.72;5068077;28;20040;-84
2023/07/18 05:23:01;;;;;;;5.65;2.65;;;;;;;15.39;88.90;102000.69;5067661;28;20319;-84
2023/07/18 05:25:27;;;;;;;5.32;2.58;;;;;;;15.39;88.73;102005.97;5046487;28;20349;-84
2023/07/18 05:27:52;;;;;;;5.78;2.10;;;;;;;15.41;88.50;102013.78;5069013;28;20060;-83
2023/07/18 05:30:19;;;;;;;6.07;2.58;;;;;;;15.43;88.78;102022.53;5069096;28;20272;-83
2023/07/18 05:32:45;;;;;;;6.95;2.33;;;;;;;15.43;89.14;102007.53;5069200;28;20040;-84
2023/07/18 05:35:14;;;;;;;7.85;2.88;;;;;;;15.46;89.21;102020.63;5061985;28;20317;-83
2023/07/18 05:37:40;;;;;;;6.43;2.85;;;;;;;15.49;89.17;102017.81;5046360;28;20047;-84
2023/07/18 05:40:09;;;;;;;12.80;3.40;;;;;;;15.52;89.40;102025.63;5048904;28;20033;-83
2023/07/18 05:42:35;;;;;;;9.98;3.22;;;;;;;15.55;89.56;102028.16;5046063;28;20067;-84
2023/07/18 05:45:01;;;;;;;12.35;3.40;;;;;;;15.57;89.70;102025.41;5038068;28;20016;-84
2023/07/18 05:47:26;;;;;;;8.10;3.35;;;;;;;15.60;89.73;102025.28;5047161;28;20032;-83
2023/07/18 05:49:51;;;;;;;8.50;3.20;;;;;;;15.62;89.67;102028.72;5056512;28;20243;-83
2023/07/18 05:52:17;;;;;;;7.25;3.08;;;;;;;15.63;89.69;102030.44;5042012;28;20068;-83
2023/07/18 05:54:42;;;;;;;15.93;4.90;;;;;;;15.67;89.36;102039.09;5076043;28;20028;-84
2023/07/18 05:57:07;;;;;;;8.98;3.67;;;;;;;15.68;89.66;102031.13;5065638;28;20088;-84
2023/07/18 05:59:34;;;;;;;11.85;4.40;;;;;;;15.69;89.63;102030.16;5057386;28;20057;-84
2023/07/18 06:01:59;;;;;;;11.13;4.45;;;;;;;15.71;89.75;102027.47;5072313;28;20028;-83
2023/07/18 06:04:25;;;;;;;17.52;4.75;;;;;;;15.73;90.05;102026.50;5065932;28;20040;-83
2023/07/18 06:06:50;;;;;;;13.23;4.97;;;;;;;15.74;90.00;102033.50;5073486;28;20071;-84
2023/07/18 06:09:15;;;;;;;16.73;5.60;;;;;;;15.74;90.40;102044.06;5056222;28;20212;-83
2023/07/18 06:11:41;;;;;;;13.35;4.70;;;;;;;15.78;90.85;102043.94;5071592;28;20064;-84
2023/07/18 06:14:06;;;;;;;9.45;5.55;;;;;;;15.80;90.54;102045.59;5043719;28;20166;-84
2023/07/18 06:16:32;;;;;;;17.83;6.57;;;;;;;15.82;90.54;102040.25;5034477;28;20306;-84
2023/07/18 06:18:57;;;;;;;11.75;5.78;;;;;;;15.85;90.76;102051.53;5054725;28;20047;-84
2023/07/18 06:21:26;;;;;;;7.57;4.88;;;;;;;15.86;90.56;102047.97;5058249;28;20108;-84
2023/07/18 06:23:52;;;;;;;14.45;6.35;;;;;;;15.89;91.02;102045.19;5041652;28;20036;-84
2023/07/18 06:26:18;;;;;;;17.30;6.75;;;;;;;15.91;91.25;102055.69;5062925;28;20056;-84
2023/07/18 06:28:43;;;;;;;9.82;6.07;;;;;;;15.93;91.25;102060.00;5054244;28;20279;-84
2023/07/18 06:31:10;;;;;;;10.57;6.50;;;;;;;15.95;91.08;102054.63;5055293;28;20041;-84
2023/07/18 06:33:37;;;;;;;18.55;7.88;;;;;;;15.97;91.13;102063.38;5071503;28;20056;-83
2023/07/18 06:36:03;;;;;;;18.42;7.63;;;;;;;16.00;91.46;102055.28;5067087;28;20034;-84
2023/07/18 06:38:28;;;;;;;17.48;8.18;;;;;;;16.01;91.17;102049.09;5060143;28;20096;-84
2023/07/18 06:40:55;;;;;;;16.95;8.25;;;;;;;16.05;91.20;102049.81;5071226;28;20028;-84
2023/07/18 06:43:24;;;;;;;12.77;7.85;;;;;;;16.05;91.20;102050.66;5072512;28;20059;-83
2023/07/18 06:45:50;;;;;;;14.52;7.57;;;;;;;16.10;91.46;102043.38;5069383;28;20302;-84
2023/07/18 06:48:16;;;;;;;12.38;7.90;;;;;;;16.14;91.09;102052.03;5056256;28;20357;-84
2023/07/18 06:50:52;;;;;;;19.05;9.45;;;;;;;16.18;91.43;102050.13;5050809;28;20195;-84
2023/07/18 06:53:19;;;;;;;19.05;8.90;;;;;;;16.20;91.71;102041.19;5060135;28;20044;-84
2023/07/18 06:55:46;;;;;;;14.60;8.98;;;;;;;16.21;91.70;102037.63;5074431;28;20326;-84
2023/07/18 06:58:12;;;;;;;19.70;8.45;;;;;;;16.26;91.74;102038.28;5066328;28;20021;-84
2023/07/18 07:00:39;;;;;;;16.77;7.55;;;;;;;16.30;91.40;102039.00;5067005;28;20388;-83
2023/07/18 07:03:04;;;;;;;12.27;7.35;;;;;;;16.32;91.17;102039.78;5063630;28;20299;-84
2023/07/18 07:05:30;;;;;;;17.30;10.48;;;;;;;16.37;91.25;102036.91;5055675;28;20055;-84
2023/07/18 07:07:55;;;;;;;13.18;8.15;;;;;;;16.42;91.48;102040.19;5067810;28;20024;-84
2023/07/18 07:10:21;;;;;;;15.48;8.65;;;;;;;16.44;91.12;102036.53;5060159;28;20035;-84
2023/07/18 07:12:47;;;;;;;16.02;9.63;;;;;;;16.47;90.89;102032.91;5063857;28;20033;-84
2023/07/18 07:15:13;;;;;;;15.55;9.48;;;;;;;16.50;90.80;102025.69;5068968;28;20335;-84
2023/07/18 07:17:39;;;;;;;10.30;7.90;;;;;;;16.54;90.75;102025.56;5048650;28;20103;-84
2023/07/18 07:20:06;;;;;;;10.82;7.90;;;;;;;16.57;90.43;102028.94;5066825;28;20107;-84
2023/07/18 07:22:31;;;;;;;11.70;7.82;;;;;;;16.59;90.15;102029.72;5070091;28;20034;-84
2023/07/18 07:24:57;;;;;;;15.43;9.25;;;;;;;16.63;89.83;102036.56;5072527;28;20033;-84
2023/07/18 07:27:23;;;;;;;14.23;8.02;;;;;;;16.68;89.65;102031.91;5062183;28;20044;-84
2023/07/18 07:29:49;;;;;;;11.57;8.75;;;;;;;16.73;89.66;102034.31;5062085;28;20040;-84
2023/07/18 07:32:15;;;;;;;14.60;8.63;;;;;;;16.78;89.33;102031.47;5055427;28;20055;-84
2023/07/18 07:34:41;;;;;;;14.23;9.80;;;;;;;16.82;89.25;102031.25;5048414;28;20142;-84
2023/07/18 07:37:08;;;;;;;15.20;9.25;;;;;;;16.85;88.97;102033.78;5064754;28;20066;-84
2023/07/18 07:39:34;;;;;;;13.85;8.80;;;;;;;16.86;88.72;102026.69;5066418;28;20032;-84
2023/07/18 07:42:00;;;;;;;11.27;8.60;;;;;;;16.88;88.52;102035.41;5049525;28;20021;-84
2023/07/18 07:44:26;;;;;;;12.88;9.85;;;;;;;16.92;88.56;102028.19;5070655;28;20326;-84
2023/07/18 07:46:51;;;;;;;10.45;8.73;;;;;;;16.98;88.90;102035.84;5068297;28;20029;-83
2023/07/18 07:49:17;;;;;;;15.35;9.10;;;;;;;17.00;87.91;102026.88;5069188;28;20025;-83
2023/07/18 07:51:42;;;;;;;18.85;11.50;;;;;;;17.05;88.53;102019.56;5049292;28;20250;-84
2023/07/18 07:54:08;;;;;;;15.52;9.85;;;;;;;17.10;88.58;102015.84;5066786;28;20062;-84
2023/07/18 07:56:33;;;;;;;17.27;10.02;;;;;;;17.15;89.02;102019.97;5046766;28;20060;-84
2023/07/18 07:58:58;;;;;;;19.52;10.00;;;;;;;17.20;88.71;102017.09;5067639;28;20054;-84
2023/07/18 08:01:24;;;;;;;16.85;9.68;;;;;;;17.25;88.70;102012.44;5069381;28;20041;-84
2023/07/18 08:03:49;;;;;;;16.85;9.90;;;;;;;17.29;88.66;102019.28;5072019;28;20347;-84
2023/07/18 08:06:14;;;;;;;15.77;9.80;;;;;;;17.34;88.89;102021.72;5075871;28;20028;-84
2023/07/18 08:08:40;;;;;;;12.77;8.52;;;;;;;17.37;88.72;102022.41;5075591;28;20032;-84
2023/07/18 08:11:05;;;;;;;11.35;8.30;;;;;;;17.41;88.25;102031.91;5071012;28;20040;-84
2023/07/18 08:13:31;;;;;;;12.27;9.30;;;;;;;17.46;88.25;102023.72;5072486;28;20040;-84
2023/07/18 08:15:56;;;;;;;12.00;8.52;;;;;;;17.50;88.04;102020.00;5076060;28;20264;-84
2023/07/18 08:18:21;;;;;;;12.60;10.02;;;;;;;17.53;87.42;102021.63;5069968;28;20063;-84
2023/07/18 08:20:47;;;;;;;11.48;8.02;;;;;;;17.54;87.14;102015.41;5050063;28;20028;-84
2023/07/18 08:23:14;;;;;;;14.15;8.88;;;;;;;17.54;86.95;102015.41;5071144;28;20033;-84
2023/07/18 08:25:43;;;;;;;11.75;8.32;;;;;;;17.55;86.81;102025.91;5074951;28;20036;-84
2023/07/18 08:28:09;;;;;;;11.13;8.27;;;;;;;17.58;86.81;102020.44;5074615;28;20323;-84
2023/07/18 08:30:34;;;;;;;10.32;7.80;;;;;;;17.61;86.73;102025.59;5069709;28;20059;-85
2023/07/18 08:32:59;;;;;;;13.43;8.32;;;;;;;17.64;86.71;102021.94;5082212;28;20064;-84
2023/07/18 08:35:25;;;;;;;9.55;8.07;;;;;;;17.64;86.47;102019.28;5075266;28;20039;-85
2023/07/18 08:37:50;;;;;;;12.77;9.27;;;;;;;17.65;86.22;102018.34;5071672;28;20038;-84
2023/07/18 08:40:16;;;;;;;15.50;10.13;;;;;;;17.64;86.36;102017.50;5068729;28;20322;-84
2023/07/18 08:42:42;;;;;;;20.17;11.05;;;;;;;17.65;86.16;102021.00;5053300;28;20024;-84
2023/07/18 08:45:10;;;;;;;13.05;9.63;;;;;;;17.65;85.91;102018.34;5074057;28;20028;-85
2023/07/18 08:47:37;;;;;;;11.20;8.80;;;;;;;17.68;85.95;102006.72;5075878;28;20036;-84
2023/07/18 08:50:03;;;;;;;14.07;7.95;;;;;;;17.70;86.00;102011.03;5069101;28;20107;-84
2023/07/18 08:52:28;;;;;;;9.48;7.78;;;;;;;17.75;85.94;102006.31;5074911;28;20374;-84
2023/07/18 08:54:54;;;;;;;11.38;7.70;;;;;;;17.79;85.99;102020.25;5070639;28;20032;-84
2023/07/18 08:57:21;;;;;;;13.02;7.05;;;;;;;17.84;85.64;102013.81;5074599;28;20036;-84
2023/07/18 08:59:47;;;;;;;11.35;6.93;;;;;;;17.89;85.49;102018.88;5068533;28;20326;-84
2023/07/18 09:02:12;;;;;;;8.27;6.07;;;;;;;17.95;85.67;102007.94;5050070;28;20025;-84
2023/07/18 09:04:38;;;;;;;7.40;5.10;;;;;;;18.01;85.20;102004.16;5070454;28;20089;-84
2023/07/18 09:07:03;;;;;;;6.50;5.75;;;;;;;18.07;84.69;102005.59;5071972;28;20281;-84
2023/07/18 09:09:29;;;;;;;12.23;6.43;;;;;;;18.08;84.55;101997.56;5073862;28;20246;-84
2023/07/18 09:11:59;;;;;;;8.10;5.65;;;;;;;18.11;84.66;102002.69;5073218;28;20404;-84
2023/07/18 09:14:30;;;;;;;9.93;5.32;;;;;;;18.18;84.85;101997.91;5060798;28;20059;-84
2023/07/18 09:16:58;;;;;;;9.68;5.25;;;;;;;18.21;84.72;101993.31;5076800;28;20068;-84
2023/07/18 09:19:40;;;;;;;9.98;4.97;;;;;;;18.25;84.22;101993.16;5075835;28;20255;-84
2023/07/18 09:22:10;;;;;;;6.40;4.57;;;;;;;18.28;84.15;101991.19;5076308;28;20024;-84
2023/07/18 09:24:37;;;;;;;8.60;4.63;;;;;;;18.31;83.42;101988.34;5071410;28;20212;-84
2023/07/18 09:27:07;;;;;;;7.30;4.57;;;;;;;18.33;83.14;101994.41;5088565;28;20089;-84
2023/07/18 09:29:33;;;;;;;7.10;4.43;;;;;;;18.36;83.11;101988.94;5074512;28;20029;-84
2023/07/18 09:31:59;;;;;;;11.13;4.70;;;;;;;18.39;83.07;101982.59;5077518;28;20338;-84
2023/07/18 09:34:28;;;;;;;6.30;4.50;;;;;;;18.42;82.64;101978.00;5072874;28;20093;-84
2023/07/18 09:36:54;;;;;;;;;;;;;;;18.48;83.13;101990.09;5070558;28;20033;-85
2023/07/18 09:39:20;;;;;;;8.77;4.80;;;;;;;18.53;83.11;101984.50;5069511;28;20218;-85
2023/07/18 09:41:46;;;;;;;17.10;5.18;;;;;;;18.55;82.49;101983.47;5067658;28;20032;-84
2023/07/18 09:44:14;;;;;;;7.20;3.83;;;;;;;18.57;82.56;101986.03;5070298;28;20047;-84
2023/07/18 09:46:40;;;;;;;7.18;3.92;;;;;;;18.58;82.57;101982.44;5053341;28;20398;-84
2023/07/18 09:49:05;;;;;;;11.18;4.30;;;;;;;18.63;82.62;101975.09;5051427;28;20032;-84
2023/07/18 09:51:33;;;;;;;12.90;4.30;;;;;;;18.66;81.68;101980.22;5068755;28;20051;-84
2023/07/18 09:53:59;;;;;;;7.07;3.90;;;;;;;18.71;82.11;101979.97;5074685;28;20363;-85
2023/07/18 09:56:26;;;;;;;11.50;3.92;;;;;;;18.76;81.91;101981.41;5076805;28;20043;-84
2023/07/18 09:58:52;;;;;;;6.55;3.63;;;;;;;18.84;82.11;101973.03;5063756;28;20107;-84
2023/07/18 10:01:20;;;;;;;5.35;3.40;;;;;;;18.89;81.69;101972.78;5055587;28;20099;-84
2023/07/18 10:03:47;;;;;;;5.63;3.28;;;;;;;18.92;81.21;101965.50;5055825;28;20028;-84
2023/07/18 10:06:15;;;;;;;3.70;2.60;;;;;;;18.94;80.97;101958.28;5085552;28;20322;-85
2023/07/18 10:08:43;;;;;;;7.78;4.10;;;;;;;18.99;80.10;101958.00;5074220;28;20090;-83
2023/07/18 10:11:09;;;;;;;6.93;3.65;;;;;;;19.03;79.43;101967.53;5073390;28;20250;-84
2023/07/18 10:13:41;;;;;;;4.47;2.85;;;;;;;19.06;79.24;101953.19;5071401;28;20040;-85
2023/07/18 10:16:13;;;;;;;4.57;2.83;;;;;;;19.10;79.20;101952.94;5063961;28;20035;-84
2023/07/18 10:18:51;;;;;;;3.53;2.63;;;;;;;19.13;78.84;101946.59;5070028;28;20090;-83
2023/07/18 10:21:37;;;;;;;;;;;;;;;19.14;77.57;101938.53;5075611;28;20059;-84
2023/07/18 10:24:21;;;;;;;6.97;3.15;;;;;;;19.17;77.04;101926.88;5079381;28;20228;-85
2023/07/18 10:26:58;;;;;;;8.27;3.75;;;;;;;19.18;76.96;101929.44;5073957;28;20267;-84
2023/07/18 10:29:28;;;;;;;7.80;3.70;;;;;;;19.20;77.26;101923.19;5075065;28;20032;-84
2023/07/18 10:31:53;;;;;;;5.03;2.80;;;;;;;19.21;77.63;101927.53;5076075;28;20628;-85
2023/07/18 10:34:19;;;;;;;6.50;3.10;;;;;;;19.24;77.22;101932.66;5072707;28;20040;-83
2023/07/18 10:36:58;;;;;;;4.00;3.17;;;;;;;19.25;77.15;101931.75;5075471;28;20035;-84
2023/07/18 10:39:41;;;;;;;9.15;3.72;;;;;;;19.31;76.90;101923.38;5059628;28;20040;-83
2023/07/18 10:42:07;;;;;;;10.43;5.57;;;;;;;19.35;75.25;101925.75;5073105;28;20373;-84
2023/07/18 10:44:36;;;;;;;6.82;3.55;;;;;;;19.41;75.15;101928.97;5072355;28;20289;-84
2023/07/18 10:47:11;;;;;;;5.43;3.53;;;;;;;19.40;75.56;101921.97;5080110;28;20406;-85
2023/07/18 10:49:36;;;;;;;7.35;3.63;;;;;;;19.41;76.02;101932.53;5091080;28;20044;-84
2023/07/18 10:52:02;;;;;;;6.30;3.40;;;;;;;19.43;75.92;101930.63;5074607;28;20036;-84
2023/07/18 10:54:27;;;;;;;4.40;2.55;;;;;;;19.49;75.50;101932.03;5090426;28;20036;-84
2023/07/18 10:56:53;;;;;;;5.88;3.38;;;;;;;19.53;75.66;101930.91;5080659;28;20042;-84
2023/07/18 10:59:20;;;;;;;4.68;2.38;;;;;;;19.57;75.22;101921.78;5084973;28;20299;-84
2023/07/18 11:01:46;;;;;;;5.25;2.75;;;;;;;19.61;74.64;101917.13;5073399;28;20032;-85
2023/07/18 11:04:12;;;;;;;5.93;2.40;;;;;;;19.65;73.84;101900.09;5066856;28;20264;-84
2023/07/18 11:06:48;;;;;;;3.10;2.20;;;;;;;19.70;72.10;101892.66;5072777;28;20444;-85
2023/07/18 11:09:13;;;;;;;4.07;2.53;;;;;;;19.74;71.77;101903.03;5080541;28;20227;-84
2023/07/18 11:11:39;;;;;;;3.45;2.10;;;;;;;19.78;71.94;101908.16;5072305;28;20032;-85
2023/07/18 11:14:04;;;;;;;4.97;2.05;;;;;;;19.81;72.65;101905.28;5084644;28;20450;-85
2023/07/18 11:16:30;;;;;;;3.63;1.85;;;;;;;19.88;70.96;101906.63;5071501;28;20036;-84
2023/07/18 11:18:56;;;;;;;6.47;2.10;;;;;;;19.93;71.28;101900.06;5066938;28;20078;-84
2023/07/18 11:21:22;;;;;;;3.72;1.50;;;;;;;19.97;70.90;101886.56;5072885;28;20085;-84
2023/07/18 11:23:48;;;;;;;4.47;2.00;;;;;;;20.03;70.36;101894.16;5073461;28;20028;-84